sensor_id;sensor_type;location;lat;lon;timestamp;P1;durP1;ratioP1;P2;durP2;ratioP2
4563;SDS011;2294;51.818;8.484;2023-05-07T00:01:34;11.80;;;7.60;;
4563;SDS011;2294;51.818;8.484;2023-05-07T00:04:02;9.30;;;7.60;;
4563;SDS011;2294;51.818;8.484;2023-05-07T00:06:29;11.43;;;8.73;;
4563;SDS011;2294;51.818;8.484;2023-05-07T00:08:56;10.77;;;8.73;;
4563;SDS011;2294;51.818;8.484;2023-05-07T00:11:24;12.33;;;8.40;;
4563;SDS011;2294;51.818;8.484;2023-05-07T00:13:51;12.30;;;8.33;;
4563;SDS011;2294;51.818;8.484;2023-05-07T00:16:18;12.90;;;8.70;;
4563;SDS011;2294;51.818;8.484;2023-05-07T00:18:45;17.50;;;8.40;;
4563;SDS011;2294;51.818;8.484;2023-05-07T00:21:13;10.77;;;8.53;;
4563;SDS011;2294;51.818;8.484;2023-05-07T00:23:40;12.77;;;9.30;;
4563;SDS011;2294;51.818;8.484;2023-05-07T00:26:07;12.23;;;8.83;;
4563;SDS011;2294;51.818;8.484;2023-05-07T00:28:34;15.20;;;9.37;;
4563;SDS011;2294;51.818;8.484;2023-05-07T00:31:01;12.67;;;9.00;;
4563;SDS011;2294;51.818;8.484;2023-05-07T00:33:28;9.60;;;8.30;;
4563;SDS011;2294;51.818;8.484;2023-05-07T00:35:55;12.70;;;9.07;;
4563;SDS011;2294;51.818;8.484;2023-05-07T00:38:23;12.07;;;8.00;;
4563;SDS011;2294;51.818;8.484;2023-05-07T00:40:50;11.63;;;9.00;;
4563;SDS011;2294;51.818;8.484;2023-05-07T00:43:16;13.83;;;9.17;;
4563;SDS011;2294;51.818;8.484;2023-05-07T00:45:43;16.13;;;9.20;;
4563;SDS011;2294;51.818;8.484;2023-05-07T00:48:10;10.53;;;8.30;;
4563;SDS011;2294;51.818;8.484;2023-05-07T00:50:37;11.33;;;8.20;;
4563;SDS011;2294;51.818;8.484;2023-05-07T00:53:04;18.60;;;8.93;;
4563;SDS011;2294;51.818;8.484;2023-05-07T00:55:34;12.83;;;9.37;;
4563;SDS011;2294;51.818;8.484;2023-05-07T00:58:02;13.03;;;9.57;;
4563;SDS011;2294;51.818;8.484;2023-05-07T01:00:29;16.07;;;10.17;;
4563;SDS011;2294;51.818;8.484;2023-05-07T01:02:56;13.67;;;9.10;;
4563;SDS011;2294;51.818;8.484;2023-05-07T01:05:23;17.27;;;8.57;;
4563;SDS011;2294;51.818;8.484;2023-05-07T01:07:51;12.93;;;8.43;;
4563;SDS011;2294;51.818;8.484;2023-05-07T01:10:20;15.60;;;9.77;;
4563;SDS011;2294;51.818;8.484;2023-05-07T01:12:49;12.80;;;8.60;;
4563;SDS011;2294;51.818;8.484;2023-05-07T01:15:17;12.80;;;8.73;;
4563;SDS011;2294;51.818;8.484;2023-05-07T01:17:44;14.53;;;9.63;;
4563;SDS011;2294;51.818;8.484;2023-05-07T01:20:11;16.77;;;10.23;;
4563;SDS011;2294;51.818;8.484;2023-05-07T01:22:40;12.43;;;10.23;;
4563;SDS011;2294;51.818;8.484;2023-05-07T01:25:08;14.27;;;10.83;;
4563;SDS011;2294;51.818;8.484;2023-05-07T01:27:35;15.83;;;11.60;;
4563;SDS011;2294;51.818;8.484;2023-05-07T01:30:02;18.77;;;11.40;;
4563;SDS011;2294;51.818;8.484;2023-05-07T01:32:32;16.77;;;11.33;;
4563;SDS011;2294;51.818;8.484;2023-05-07T01:35:05;20.13;;;11.30;;
4563;SDS011;2294;51.818;8.484;2023-05-07T01:37:33;14.87;;;11.07;;
4563;SDS011;2294;51.818;8.484;2023-05-07T01:40:02;17.60;;;11.60;;
4563;SDS011;2294;51.818;8.484;2023-05-07T01:42:30;14.70;;;11.00;;
4563;SDS011;2294;51.818;8.484;2023-05-07T01:44:58;21.87;;;12.70;;
4563;SDS011;2294;51.818;8.484;2023-05-07T01:47:24;19.63;;;12.20;;
4563;SDS011;2294;51.818;8.484;2023-05-07T01:49:52;24.47;;;12.47;;
4563;SDS011;2294;51.818;8.484;2023-05-07T01:52:19;22.30;;;12.20;;
4563;SDS011;2294;51.818;8.484;2023-05-07T01:54:46;23.87;;;13.70;;
4563;SDS011;2294;51.818;8.484;2023-05-07T01:57:15;21.57;;;13.30;;
4563;SDS011;2294;51.818;8.484;2023-05-07T01:59:42;18.30;;;13.00;;
4563;SDS011;2294;51.818;8.484;2023-05-07T02:02:08;18.33;;;12.43;;
4563;SDS011;2294;51.818;8.484;2023-05-07T02:04:35;17.70;;;12.77;;
4563;SDS011;2294;51.818;8.484;2023-05-07T02:07:02;20.40;;;13.50;;
4563;SDS011;2294;51.818;8.484;2023-05-07T02:09:29;21.70;;;12.67;;
4563;SDS011;2294;51.818;8.484;2023-05-07T02:11:56;19.97;;;13.00;;
4563;SDS011;2294;51.818;8.484;2023-05-07T02:14:24;23.27;;;14.50;;
4563;SDS011;2294;51.818;8.484;2023-05-07T02:16:51;17.63;;;12.93;;
4563;SDS011;2294;51.818;8.484;2023-05-07T02:19:18;18.60;;;13.67;;
4563;SDS011;2294;51.818;8.484;2023-05-07T02:21:46;17.77;;;13.00;;
4563;SDS011;2294;51.818;8.484;2023-05-07T02:24:13;25.33;;;12.93;;
4563;SDS011;2294;51.818;8.484;2023-05-07T02:26:40;19.40;;;14.70;;
4563;SDS011;2294;51.818;8.484;2023-05-07T02:29:07;17.40;;;13.67;;
4563;SDS011;2294;51.818;8.484;2023-05-07T02:31:35;20.37;;;14.30;;
4563;SDS011;2294;51.818;8.484;2023-05-07T02:34:02;27.20;;;14.00;;
4563;SDS011;2294;51.818;8.484;2023-05-07T02:36:29;31.63;;;14.00;;
4563;SDS011;2294;51.818;8.484;2023-05-07T02:38:56;23.23;;;14.63;;
4563;SDS011;2294;51.818;8.484;2023-05-07T02:41:23;23.00;;;14.43;;
4563;SDS011;2294;51.818;8.484;2023-05-07T02:43:50;20.87;;;14.90;;
4563;SDS011;2294;51.818;8.484;2023-05-07T02:46:16;21.97;;;14.80;;
4563;SDS011;2294;51.818;8.484;2023-05-07T02:48:45;23.77;;;15.43;;
4563;SDS011;2294;51.818;8.484;2023-05-07T02:51:11;24.93;;;16.13;;
4563;SDS011;2294;51.818;8.484;2023-05-07T02:53:38;21.93;;;14.87;;
4563;SDS011;2294;51.818;8.484;2023-05-07T02:56:05;22.40;;;14.30;;
4563;SDS011;2294;51.818;8.484;2023-05-07T02:58:32;24.30;;;15.60;;
4563;SDS011;2294;51.818;8.484;2023-05-07T03:00:59;23.90;;;17.03;;
4563;SDS011;2294;51.818;8.484;2023-05-07T03:03:26;23.60;;;15.77;;
4563;SDS011;2294;51.818;8.484;2023-05-07T03:05:54;19.47;;;14.80;;
4563;SDS011;2294;51.818;8.484;2023-05-07T03:08:21;22.30;;;13.27;;
4563;SDS011;2294;51.818;8.484;2023-05-07T03:10:49;24.37;;;15.70;;
4563;SDS011;2294;51.818;8.484;2023-05-07T03:13:16;25.50;;;15.60;;
4563;SDS011;2294;51.818;8.484;2023-05-07T03:15:43;20.40;;;14.20;;
4563;SDS011;2294;51.818;8.484;2023-05-07T03:18:10;23.43;;;14.63;;
4563;SDS011;2294;51.818;8.484;2023-05-07T03:20:37;19.43;;;13.93;;
4563;SDS011;2294;51.818;8.484;2023-05-07T03:23:05;22.57;;;14.97;;
4563;SDS011;2294;51.818;8.484;2023-05-07T03:25:32;21.20;;;14.77;;
4563;SDS011;2294;51.818;8.484;2023-05-07T03:27:59;26.03;;;15.37;;
4563;SDS011;2294;51.818;8.484;2023-05-07T03:30:26;21.93;;;15.33;;
4563;SDS011;2294;51.818;8.484;2023-05-07T03:32:52;26.23;;;14.40;;
4563;SDS011;2294;51.818;8.484;2023-05-07T03:35:19;20.63;;;14.70;;
4563;SDS011;2294;51.818;8.484;2023-05-07T03:37:46;25.50;;;14.10;;
4563;SDS011;2294;51.818;8.484;2023-05-07T03:40:14;25.23;;;14.13;;
4563;SDS011;2294;51.818;8.484;2023-05-07T03:42:41;24.87;;;13.77;;
4563;SDS011;2294;51.818;8.484;2023-05-07T03:45:08;23.97;;;15.80;;
4563;SDS011;2294;51.818;8.484;2023-05-07T03:47:35;30.50;;;15.97;;
4563;SDS011;2294;51.818;8.484;2023-05-07T03:50:02;18.80;;;13.57;;
4563;SDS011;2294;51.818;8.484;2023-05-07T03:52:30;25.00;;;16.10;;
4563;SDS011;2294;51.818;8.484;2023-05-07T03:54:56;26.30;;;15.97;;
4563;SDS011;2294;51.818;8.484;2023-05-07T03:57:25;25.00;;;16.47;;
4563;SDS011;2294;51.818;8.484;2023-05-07T03:59:51;22.67;;;14.70;;
4563;SDS011;2294;51.818;8.484;2023-05-07T04:02:18;29.63;;;16.80;;
4563;SDS011;2294;51.818;8.484;2023-05-07T04:04:45;22.40;;;14.80;;
4563;SDS011;2294;51.818;8.484;2023-05-07T04:07:14;27.90;;;17.10;;
4563;SDS011;2294;51.818;8.484;2023-05-07T04:09:41;28.47;;;15.07;;
4563;SDS011;2294;51.818;8.484;2023-05-07T04:12:08;23.30;;;14.50;;
4563;SDS011;2294;51.818;8.484;2023-05-07T04:14:36;27.83;;;16.23;;
4563;SDS011;2294;51.818;8.484;2023-05-07T04:17:03;27.23;;;17.13;;
4563;SDS011;2294;51.818;8.484;2023-05-07T04:19:32;29.20;;;16.67;;
4563;SDS011;2294;51.818;8.484;2023-05-07T04:21:59;31.17;;;16.20;;
4563;SDS011;2294;51.818;8.484;2023-05-07T04:24:26;28.20;;;14.40;;
4563;SDS011;2294;51.818;8.484;2023-05-07T04:26:53;31.60;;;18.30;;
4563;SDS011;2294;51.818;8.484;2023-05-07T04:29:20;27.63;;;19.23;;
4563;SDS011;2294;51.818;8.484;2023-05-07T04:31:48;28.57;;;16.97;;
4563;SDS011;2294;51.818;8.484;2023-05-07T04:34:15;29.67;;;17.70;;
4563;SDS011;2294;51.818;8.484;2023-05-07T04:36:42;26.23;;;15.80;;
4563;SDS011;2294;51.818;8.484;2023-05-07T04:39:09;31.80;;;18.70;;
4563;SDS011;2294;51.818;8.484;2023-05-07T04:41:36;30.00;;;17.83;;
4563;SDS011;2294;51.818;8.484;2023-05-07T04:44:03;26.73;;;17.70;;
4563;SDS011;2294;51.818;8.484;2023-05-07T04:46:31;29.87;;;18.80;;
4563;SDS011;2294;51.818;8.484;2023-05-07T04:48:59;24.87;;;17.23;;
4563;SDS011;2294;51.818;8.484;2023-05-07T04:51:26;31.43;;;18.10;;
4563;SDS011;2294;51.818;8.484;2023-05-07T04:53:53;31.97;;;17.93;;
4563;SDS011;2294;51.818;8.484;2023-05-07T04:56:19;26.47;;;18.00;;
4563;SDS011;2294;51.818;8.484;2023-05-07T04:58:46;27.17;;;18.40;;
4563;SDS011;2294;51.818;8.484;2023-05-07T05:01:13;33.00;;;17.70;;
4563;SDS011;2294;51.818;8.484;2023-05-07T05:03:40;37.47;;;17.23;;
4563;SDS011;2294;51.818;8.484;2023-05-07T05:06:09;32.20;;;19.67;;
4563;SDS011;2294;51.818;8.484;2023-05-07T05:08:36;33.93;;;20.33;;
4563;SDS011;2294;51.818;8.484;2023-05-07T05:11:03;27.40;;;16.93;;
4563;SDS011;2294;51.818;8.484;2023-05-07T05:13:30;30.70;;;18.47;;
4563;SDS011;2294;51.818;8.484;2023-05-07T05:15:57;29.50;;;18.93;;
4563;SDS011;2294;51.818;8.484;2023-05-07T05:18:24;28.40;;;17.50;;
4563;SDS011;2294;51.818;8.484;2023-05-07T05:20:51;34.73;;;19.77;;
4563;SDS011;2294;51.818;8.484;2023-05-07T05:23:19;28.70;;;18.00;;
4563;SDS011;2294;51.818;8.484;2023-05-07T05:25:46;28.43;;;18.00;;
4563;SDS011;2294;51.818;8.484;2023-05-07T05:28:13;26.13;;;17.93;;
4563;SDS011;2294;51.818;8.484;2023-05-07T05:30:39;27.20;;;17.13;;
4563;SDS011;2294;51.818;8.484;2023-05-07T05:33:06;38.20;;;19.13;;
4563;SDS011;2294;51.818;8.484;2023-05-07T05:35:33;32.70;;;17.30;;
4563;SDS011;2294;51.818;8.484;2023-05-07T05:38:00;31.07;;;18.10;;
4563;SDS011;2294;51.818;8.484;2023-05-07T05:40:29;32.40;;;18.27;;
4563;SDS011;2294;51.818;8.484;2023-05-07T05:42:57;30.63;;;17.83;;
4563;SDS011;2294;51.818;8.484;2023-05-07T05:45:23;28.53;;;17.50;;
4563;SDS011;2294;51.818;8.484;2023-05-07T05:47:50;34.90;;;18.50;;
4563;SDS011;2294;51.818;8.484;2023-05-07T05:50:17;26.03;;;16.10;;
4563;SDS011;2294;51.818;8.484;2023-05-07T05:52:44;32.03;;;19.30;;
4563;SDS011;2294;51.818;8.484;2023-05-07T05:55:11;29.17;;;16.93;;
4563;SDS011;2294;51.818;8.484;2023-05-07T05:57:39;28.53;;;17.50;;
4563;SDS011;2294;51.818;8.484;2023-05-07T06:00:07;33.80;;;19.40;;
4563;SDS011;2294;51.818;8.484;2023-05-07T06:02:35;29.33;;;18.00;;
4563;SDS011;2294;51.818;8.484;2023-05-07T06:05:01;29.37;;;17.60;;
4563;SDS011;2294;51.818;8.484;2023-05-07T06:07:29;36.50;;;18.97;;
4563;SDS011;2294;51.818;8.484;2023-05-07T06:09:55;30.47;;;17.57;;
4563;SDS011;2294;51.818;8.484;2023-05-07T06:12:22;25.20;;;16.00;;
4563;SDS011;2294;51.818;8.484;2023-05-07T06:14:51;29.53;;;16.37;;
4563;SDS011;2294;51.818;8.484;2023-05-07T06:17:18;27.90;;;16.17;;
4563;SDS011;2294;51.818;8.484;2023-05-07T06:19:44;24.13;;;16.63;;
4563;SDS011;2294;51.818;8.484;2023-05-07T06:22:11;25.17;;;16.17;;
4563;SDS011;2294;51.818;8.484;2023-05-07T06:24:38;25.87;;;15.23;;
4563;SDS011;2294;51.818;8.484;2023-05-07T06:27:05;25.60;;;16.07;;
4563;SDS011;2294;51.818;8.484;2023-05-07T06:29:32;28.20;;;16.20;;
4563;SDS011;2294;51.818;8.484;2023-05-07T06:32:07;28.27;;;15.63;;
4563;SDS011;2294;51.818;8.484;2023-05-07T06:34:34;27.30;;;16.87;;
4563;SDS011;2294;51.818;8.484;2023-05-07T06:37:02;23.60;;;14.97;;
4563;SDS011;2294;51.818;8.484;2023-05-07T06:39:29;27.43;;;16.83;;
4563;SDS011;2294;51.818;8.484;2023-05-07T06:41:56;23.90;;;15.53;;
4563;SDS011;2294;51.818;8.484;2023-05-07T06:44:23;26.67;;;15.50;;
4563;SDS011;2294;51.818;8.484;2023-05-07T06:46:50;23.80;;;16.07;;
4563;SDS011;2294;51.818;8.484;2023-05-07T06:49:18;22.53;;;13.60;;
4563;SDS011;2294;51.818;8.484;2023-05-07T06:51:45;25.57;;;15.30;;
4563;SDS011;2294;51.818;8.484;2023-05-07T06:54:13;23.43;;;14.57;;
4563;SDS011;2294;51.818;8.484;2023-05-07T06:56:40;21.93;;;13.60;;
4563;SDS011;2294;51.818;8.484;2023-05-07T06:59:07;21.77;;;14.10;;
4563;SDS011;2294;51.818;8.484;2023-05-07T07:01:33;26.10;;;15.57;;
4563;SDS011;2294;51.818;8.484;2023-05-07T07:04:00;21.27;;;13.80;;
4563;SDS011;2294;51.818;8.484;2023-05-07T07:06:29;21.70;;;14.07;;
4563;SDS011;2294;51.818;8.484;2023-05-07T07:08:56;21.33;;;14.30;;
4563;SDS011;2294;51.818;8.484;2023-05-07T07:11:23;21.23;;;13.70;;
4563;SDS011;2294;51.818;8.484;2023-05-07T07:13:50;21.87;;;14.00;;
4563;SDS011;2294;51.818;8.484;2023-05-07T07:16:19;24.57;;;16.63;;
4563;SDS011;2294;51.818;8.484;2023-05-07T07:18:46;23.60;;;14.73;;
4563;SDS011;2294;51.818;8.484;2023-05-07T07:21:13;24.13;;;14.17;;
4563;SDS011;2294;51.818;8.484;2023-05-07T07:23:41;24.93;;;13.70;;
4563;SDS011;2294;51.818;8.484;2023-05-07T07:26:08;22.63;;;12.67;;
4563;SDS011;2294;51.818;8.484;2023-05-07T07:28:35;18.87;;;13.27;;
4563;SDS011;2294;51.818;8.484;2023-05-07T07:31:07;18.83;;;12.50;;
4563;SDS011;2294;51.818;8.484;2023-05-07T07:33:34;17.70;;;11.57;;
4563;SDS011;2294;51.818;8.484;2023-05-07T07:36:01;20.60;;;14.23;;
4563;SDS011;2294;51.818;8.484;2023-05-07T07:38:28;23.40;;;13.60;;
4563;SDS011;2294;51.818;8.484;2023-05-07T07:40:57;17.13;;;12.20;;
4563;SDS011;2294;51.818;8.484;2023-05-07T07:43:23;19.47;;;12.80;;
4563;SDS011;2294;51.818;8.484;2023-05-07T07:45:50;22.20;;;12.97;;
4563;SDS011;2294;51.818;8.484;2023-05-07T07:48:17;23.23;;;11.67;;
4563;SDS011;2294;51.818;8.484;2023-05-07T07:50:44;19.47;;;12.03;;
4563;SDS011;2294;51.818;8.484;2023-05-07T07:53:11;16.77;;;11.23;;
4563;SDS011;2294;51.818;8.484;2023-05-07T07:55:38;24.10;;;12.50;;
4563;SDS011;2294;51.818;8.484;2023-05-07T07:58:06;18.17;;;11.90;;
4563;SDS011;2294;51.818;8.484;2023-05-07T08:00:33;16.30;;;11.50;;
4563;SDS011;2294;51.818;8.484;2023-05-07T08:03:00;20.67;;;12.60;;
4563;SDS011;2294;51.818;8.484;2023-05-07T08:05:28;12.40;;;9.33;;
4563;SDS011;2294;51.818;8.484;2023-05-07T08:07:55;18.10;;;11.10;;
4563;SDS011;2294;51.818;8.484;2023-05-07T08:10:23;20.43;;;12.10;;
4563;SDS011;2294;51.818;8.484;2023-05-07T08:12:50;19.80;;;12.33;;
4563;SDS011;2294;51.818;8.484;2023-05-07T08:15:19;15.70;;;10.80;;
4563;SDS011;2294;51.818;8.484;2023-05-07T08:17:45;15.27;;;9.70;;
4563;SDS011;2294;51.818;8.484;2023-05-07T08:20:12;17.03;;;10.77;;
4563;SDS011;2294;51.818;8.484;2023-05-07T08:22:39;13.07;;;9.50;;
4563;SDS011;2294;51.818;8.484;2023-05-07T08:25:06;14.73;;;10.20;;
4563;SDS011;2294;51.818;8.484;2023-05-07T08:27:34;11.67;;;9.00;;
4563;SDS011;2294;51.818;8.484;2023-05-07T08:30:01;14.83;;;10.00;;
4563;SDS011;2294;51.818;8.484;2023-05-07T08:32:29;12.90;;;9.73;;
4563;SDS011;2294;51.818;8.484;2023-05-07T08:34:56;14.10;;;9.93;;
4563;SDS011;2294;51.818;8.484;2023-05-07T08:37:23;12.83;;;9.50;;
4563;SDS011;2294;51.818;8.484;2023-05-07T08:39:50;16.47;;;10.67;;
4563;SDS011;2294;51.818;8.484;2023-05-07T08:42:17;16.63;;;9.67;;
4563;SDS011;2294;51.818;8.484;2023-05-07T08:44:45;14.10;;;9.60;;
4563;SDS011;2294;51.818;8.484;2023-05-07T08:47:13;14.67;;;10.00;;
4563;SDS011;2294;51.818;8.484;2023-05-07T08:49:41;12.10;;;8.40;;
4563;SDS011;2294;51.818;8.484;2023-05-07T08:52:08;14.30;;;9.60;;
4563;SDS011;2294;51.818;8.484;2023-05-07T08:54:36;16.90;;;8.77;;
4563;SDS011;2294;51.818;8.484;2023-05-07T08:57:03;19.10;;;8.97;;
4563;SDS011;2294;51.818;8.484;2023-05-07T08:59:30;10.53;;;7.23;;
4563;SDS011;2294;51.818;8.484;2023-05-07T09:01:57;13.20;;;8.37;;
4563;SDS011;2294;51.818;8.484;2023-05-07T09:04:24;11.90;;;8.33;;
4563;SDS011;2294;51.818;8.484;2023-05-07T09:06:52;13.30;;;8.60;;
4563;SDS011;2294;51.818;8.484;2023-05-07T09:09:19;15.03;;;9.07;;
4563;SDS011;2294;51.818;8.484;2023-05-07T09:11:48;15.03;;;9.27;;
4563;SDS011;2294;51.818;8.484;2023-05-07T09:14:15;17.03;;;9.50;;
4563;SDS011;2294;51.818;8.484;2023-05-07T09:16:42;18.70;;;9.20;;
4563;SDS011;2294;51.818;8.484;2023-05-07T09:19:09;13.53;;;8.47;;
4563;SDS011;2294;51.818;8.484;2023-05-07T09:21:36;13.10;;;9.30;;
4563;SDS011;2294;51.818;8.484;2023-05-07T09:24:05;12.57;;;8.50;;
4563;SDS011;2294;51.818;8.484;2023-05-07T09:26:32;14.00;;;8.13;;
4563;SDS011;2294;51.818;8.484;2023-05-07T09:28:59;10.77;;;8.20;;
4563;SDS011;2294;51.818;8.484;2023-05-07T09:31:26;13.03;;;8.03;;
4563;SDS011;2294;51.818;8.484;2023-05-07T09:33:53;13.00;;;9.07;;
4563;SDS011;2294;51.818;8.484;2023-05-07T09:36:21;11.30;;;7.90;;
4563;SDS011;2294;51.818;8.484;2023-05-07T09:38:48;12.27;;;8.70;;
4563;SDS011;2294;51.818;8.484;2023-05-07T09:41:17;11.87;;;8.00;;
4563;SDS011;2294;51.818;8.484;2023-05-07T09:43:46;14.30;;;8.43;;
4563;SDS011;2294;51.818;8.484;2023-05-07T09:46:19;10.87;;;7.40;;
4563;SDS011;2294;51.818;8.484;2023-05-07T09:48:52;11.13;;;8.33;;
4563;SDS011;2294;51.818;8.484;2023-05-07T09:51:22;13.70;;;8.70;;
4563;SDS011;2294;51.818;8.484;2023-05-07T09:53:54;13.00;;;8.87;;
4563;SDS011;2294;51.818;8.484;2023-05-07T09:56:26;13.07;;;8.30;;
4563;SDS011;2294;51.818;8.484;2023-05-07T09:58:54;10.80;;;7.97;;
4563;SDS011;2294;51.818;8.484;2023-05-07T10:01:22;12.93;;;8.33;;
4563;SDS011;2294;51.818;8.484;2023-05-07T10:03:51;14.20;;;8.37;;
4563;SDS011;2294;51.818;8.484;2023-05-07T10:06:19;13.33;;;8.70;;
4563;SDS011;2294;51.818;8.484;2023-05-07T10:08:46;11.50;;;7.97;;
4563;SDS011;2294;51.818;8.484;2023-05-07T10:11:15;10.90;;;7.93;;
4563;SDS011;2294;51.818;8.484;2023-05-07T10:13:44;13.03;;;8.67;;
4563;SDS011;2294;51.818;8.484;2023-05-07T10:16:14;11.90;;;7.37;;
4563;SDS011;2294;51.818;8.484;2023-05-07T10:18:41;10.57;;;7.33;;
4563;SDS011;2294;51.818;8.484;2023-05-07T10:21:11;14.37;;;9.30;;
4563;SDS011;2294;51.818;8.484;2023-05-07T10:23:43;15.67;;;9.40;;
4563;SDS011;2294;51.818;8.484;2023-05-07T10:26:11;13.37;;;8.63;;
4563;SDS011;2294;51.818;8.484;2023-05-07T10:28:41;12.07;;;7.90;;
4563;SDS011;2294;51.818;8.484;2023-05-07T10:31:18;11.00;;;7.60;;
4563;SDS011;2294;51.818;8.484;2023-05-07T10:33:59;11.50;;;7.17;;
4563;SDS011;2294;51.818;8.484;2023-05-07T10:36:28;20.40;;;8.57;;
4563;SDS011;2294;51.818;8.484;2023-05-07T10:38:56;13.57;;;7.97;;
4563;SDS011;2294;51.818;8.484;2023-05-07T10:41:22;12.23;;;8.40;;
4563;SDS011;2294;51.818;8.484;2023-05-07T10:43:51;10.40;;;7.90;;
4563;SDS011;2294;51.818;8.484;2023-05-07T10:46:18;13.60;;;7.80;;
4563;SDS011;2294;51.818;8.484;2023-05-07T10:51:36;10.10;;;7.23;;
4563;SDS011;2294;51.818;8.484;2023-05-07T10:54:23;11.33;;;8.47;;
4563;SDS011;2294;51.818;8.484;2023-05-07T10:56:50;14.50;;;8.80;;
4563;SDS011;2294;51.818;8.484;2023-05-07T10:59:37;10.20;;;7.73;;
4563;SDS011;2294;51.818;8.484;2023-05-07T11:02:08;12.47;;;7.80;;
4563;SDS011;2294;51.818;8.484;2023-05-07T11:04:36;10.50;;;7.10;;
4563;SDS011;2294;51.818;8.484;2023-05-07T11:10:05;11.83;;;7.80;;
4563;SDS011;2294;51.818;8.484;2023-05-07T11:12:53;11.50;;;7.73;;
4563;SDS011;2294;51.818;8.484;2023-05-07T11:15:38;10.87;;;7.10;;
4563;SDS011;2294;51.818;8.484;2023-05-07T11:18:08;8.93;;;6.90;;
4563;SDS011;2294;51.818;8.484;2023-05-07T11:20:52;9.60;;;7.03;;
4563;SDS011;2294;51.818;8.484;2023-05-07T11:26:43;11.87;;;7.33;;
4563;SDS011;2294;51.818;8.484;2023-05-07T11:29:14;8.40;;;5.80;;
4563;SDS011;2294;51.818;8.484;2023-05-07T11:31:43;8.70;;;6.83;;
4563;SDS011;2294;51.818;8.484;2023-05-07T11:34:14;10.67;;;7.00;;
4563;SDS011;2294;51.818;8.484;2023-05-07T11:36:46;8.97;;;6.77;;
4563;SDS011;2294;51.818;8.484;2023-05-07T11:39:27;14.50;;;6.73;;
4563;SDS011;2294;51.818;8.484;2023-05-07T11:41:55;11.60;;;6.93;;
4563;SDS011;2294;51.818;8.484;2023-05-07T11:44:22;10.93;;;7.17;;
4563;SDS011;2294;51.818;8.484;2023-05-07T11:46:50;10.73;;;6.90;;
4563;SDS011;2294;51.818;8.484;2023-05-07T11:49:17;9.23;;;6.93;;
4563;SDS011;2294;51.818;8.484;2023-05-07T11:51:45;10.10;;;7.00;;
4563;SDS011;2294;51.818;8.484;2023-05-07T11:54:12;10.73;;;6.70;;
4563;SDS011;2294;51.818;8.484;2023-05-07T11:56:43;12.50;;;6.80;;
4563;SDS011;2294;51.818;8.484;2023-05-07T11:59:12;9.83;;;6.43;;
4563;SDS011;2294;51.818;8.484;2023-05-07T12:01:45;9.40;;;6.63;;
4563;SDS011;2294;51.818;8.484;2023-05-07T12:04:16;8.83;;;6.30;;
4563;SDS011;2294;51.818;8.484;2023-05-07T12:06:46;9.77;;;7.50;;
4563;SDS011;2294;51.818;8.484;2023-05-07T12:09:13;7.53;;;5.77;;
4563;SDS011;2294;51.818;8.484;2023-05-07T12:11:40;9.23;;;6.73;;
4563;SDS011;2294;51.818;8.484;2023-05-07T12:14:11;7.50;;;5.50;;
4563;SDS011;2294;51.818;8.484;2023-05-07T12:16:38;9.20;;;6.60;;
4563;SDS011;2294;51.818;8.484;2023-05-07T12:19:06;9.23;;;5.50;;
4563;SDS011;2294;51.818;8.484;2023-05-07T12:21:38;8.27;;;6.63;;
4563;SDS011;2294;51.818;8.484;2023-05-07T12:24:06;6.73;;;5.47;;
4563;SDS011;2294;51.818;8.484;2023-05-07T12:26:37;11.43;;;5.23;;
4563;SDS011;2294;51.818;8.484;2023-05-07T12:29:05;9.70;;;6.30;;
4563;SDS011;2294;51.818;8.484;2023-05-07T12:31:32;6.20;;;4.70;;
4563;SDS011;2294;51.818;8.484;2023-05-07T12:33:59;6.40;;;5.10;;
4563;SDS011;2294;51.818;8.484;2023-05-07T12:36:26;6.10;;;5.20;;
4563;SDS011;2294;51.818;8.484;2023-05-07T12:39:05;6.30;;;5.10;;
4563;SDS011;2294;51.818;8.484;2023-05-07T12:41:35;8.07;;;5.43;;
4563;SDS011;2294;51.818;8.484;2023-05-07T12:44:18;5.77;;;4.20;;
4563;SDS011;2294;51.818;8.484;2023-05-07T12:46:46;8.20;;;4.93;;
4563;SDS011;2294;51.818;8.484;2023-05-07T12:49:13;6.30;;;4.87;;
4563;SDS011;2294;51.818;8.484;2023-05-07T12:51:40;12.17;;;4.57;;
4563;SDS011;2294;51.818;8.484;2023-05-07T12:54:08;7.13;;;5.23;;
4563;SDS011;2294;51.818;8.484;2023-05-07T12:56:35;6.80;;;4.60;;
4563;SDS011;2294;51.818;8.484;2023-05-07T12:59:02;6.97;;;5.30;;
4563;SDS011;2294;51.818;8.484;2023-05-07T13:01:29;7.40;;;4.30;;
4563;SDS011;2294;51.818;8.484;2023-05-07T13:04:00;5.20;;;4.20;;
4563;SDS011;2294;51.818;8.484;2023-05-07T13:06:27;4.97;;;3.80;;
4563;SDS011;2294;51.818;8.484;2023-05-07T13:08:54;6.00;;;4.20;;
4563;SDS011;2294;51.818;8.484;2023-05-07T13:11:22;4.57;;;3.90;;
4563;SDS011;2294;51.818;8.484;2023-05-07T13:13:49;5.40;;;3.93;;
4563;SDS011;2294;51.818;8.484;2023-05-07T13:16:16;6.10;;;4.20;;
4563;SDS011;2294;51.818;8.484;2023-05-07T13:18:42;5.40;;;4.80;;
4563;SDS011;2294;51.818;8.484;2023-05-07T13:21:10;5.73;;;4.30;;
4563;SDS011;2294;51.818;8.484;2023-05-07T13:23:38;4.57;;;3.30;;
4563;SDS011;2294;51.818;8.484;2023-05-07T13:26:05;4.80;;;3.70;;
4563;SDS011;2294;51.818;8.484;2023-05-07T13:28:33;4.73;;;3.70;;
4563;SDS011;2294;51.818;8.484;2023-05-07T13:31:00;6.50;;;3.40;;
4563;SDS011;2294;51.818;8.484;2023-05-07T13:33:27;5.70;;;4.03;;
4563;SDS011;2294;51.818;8.484;2023-05-07T13:35:54;5.43;;;3.93;;
4563;SDS011;2294;51.818;8.484;2023-05-07T13:38:22;5.63;;;3.40;;
4563;SDS011;2294;51.818;8.484;2023-05-07T13:40:49;5.27;;;4.00;;
4563;SDS011;2294;51.818;8.484;2023-05-07T13:43:16;4.23;;;3.40;;
4563;SDS011;2294;51.818;8.484;2023-05-07T13:45:45;5.17;;;3.70;;
4563;SDS011;2294;51.818;8.484;2023-05-07T13:48:12;5.10;;;3.30;;
4563;SDS011;2294;51.818;8.484;2023-05-07T13:50:38;6.50;;;4.07;;
4563;SDS011;2294;51.818;8.484;2023-05-07T13:53:05;5.00;;;3.30;;
4563;SDS011;2294;51.818;8.484;2023-05-07T13:55:33;4.70;;;3.47;;
4563;SDS011;2294;51.818;8.484;2023-05-07T13:58:01;8.50;;;3.93;;
4563;SDS011;2294;51.818;8.484;2023-05-07T14:00:29;4.90;;;4.13;;
4563;SDS011;2294;51.818;8.484;2023-05-07T14:02:57;4.60;;;4.00;;
4563;SDS011;2294;51.818;8.484;2023-05-07T14:05:24;5.13;;;4.00;;
4563;SDS011;2294;51.818;8.484;2023-05-07T14:07:53;5.60;;;4.20;;
4563;SDS011;2294;51.818;8.484;2023-05-07T14:10:20;4.67;;;3.77;;
4563;SDS011;2294;51.818;8.484;2023-05-07T14:12:47;5.13;;;3.80;;
4563;SDS011;2294;51.818;8.484;2023-05-07T14:15:14;5.10;;;4.10;;
4563;SDS011;2294;51.818;8.484;2023-05-07T14:17:41;11.17;;;5.30;;
4563;SDS011;2294;51.818;8.484;2023-05-07T14:20:10;6.20;;;4.57;;
4563;SDS011;2294;51.818;8.484;2023-05-07T14:22:37;6.43;;;4.57;;
4563;SDS011;2294;51.818;8.484;2023-05-07T14:25:05;5.10;;;4.10;;
4563;SDS011;2294;51.818;8.484;2023-05-07T14:27:34;6.53;;;4.20;;
4563;SDS011;2294;51.818;8.484;2023-05-07T14:30:01;5.47;;;4.57;;
4563;SDS011;2294;51.818;8.484;2023-05-07T14:32:28;4.90;;;4.40;;
4563;SDS011;2294;51.818;8.484;2023-05-07T14:34:55;7.87;;;4.93;;
4563;SDS011;2294;51.818;8.484;2023-05-07T14:37:23;7.00;;;5.30;;
4563;SDS011;2294;51.818;8.484;2023-05-07T14:39:50;6.67;;;5.33;;
4563;SDS011;2294;51.818;8.484;2023-05-07T14:42:17;7.80;;;4.57;;
4563;SDS011;2294;51.818;8.484;2023-05-07T14:44:44;7.10;;;5.33;;
4563;SDS011;2294;51.818;8.484;2023-05-07T14:47:13;6.60;;;5.70;;
4563;SDS011;2294;51.818;8.484;2023-05-07T14:49:40;7.23;;;5.33;;
4563;SDS011;2294;51.818;8.484;2023-05-07T14:52:08;8.40;;;5.00;;
4563;SDS011;2294;51.818;8.484;2023-05-07T14:54:36;7.20;;;5.30;;
4563;SDS011;2294;51.818;8.484;2023-05-07T14:57:04;7.73;;;5.83;;
4563;SDS011;2294;51.818;8.484;2023-05-07T14:59:32;6.73;;;5.97;;
4563;SDS011;2294;51.818;8.484;2023-05-07T15:01:59;6.77;;;5.13;;
4563;SDS011;2294;51.818;8.484;2023-05-07T15:04:26;6.40;;;5.70;;
4563;SDS011;2294;51.818;8.484;2023-05-07T15:06:53;6.50;;;5.53;;
4563;SDS011;2294;51.818;8.484;2023-05-07T15:09:21;6.93;;;6.13;;
4563;SDS011;2294;51.818;8.484;2023-05-07T15:11:49;9.00;;;6.87;;